createdAt,value
2024-02-29T00:01:11.227Z,100724.55
2024-02-29T00:06:17.807Z,100729.22
2024-02-29T00:11:22.493Z,100730.42
2024-02-29T00:16:26.008Z,100737.17
2024-02-29T00:21:30.680Z,100736.66
2024-02-29T00:26:33.642Z,100738.75
2024-02-29T00:31:36.876Z,100738.58
2024-02-29T00:36:40.769Z,100739.45
2024-02-29T00:41:43.755Z,100741.17
2024-02-29T00:46:46.593Z,100741.88
2024-02-29T00:51:49.527Z,100742.93
2024-02-29T00:56:52.581Z,100741.37
2024-02-29T01:01:57.051Z,100733.25
2024-02-29T01:07:00.128Z,100737.56
2024-02-29T01:12:03.061Z,100735.48
2024-02-29T01:17:06.007Z,100735.14
2024-02-29T01:22:09.072Z,100737.37
2024-02-29T01:27:11.999Z,100734.95
2024-02-29T01:32:19.237Z,100723.75
2024-02-29T01:37:29.228Z,100719.79
2024-02-29T01:42:32.186Z,100722.20
2024-02-29T01:47:35.209Z,100722.22
2024-02-29T01:52:41.661Z,100725.51
2024-02-29T01:57:45.284Z,100725.86
2024-02-29T02:02:48.532Z,100720.70
2024-02-29T02:07:52.361Z,100718.45
2024-02-29T02:12:55.260Z,100718.97
2024-02-29T02:17:58.164Z,100720.20
2024-02-29T02:23:01.277Z,100720.35
2024-02-29T02:28:04.816Z,100715.20
2024-02-29T02:33:08.945Z,100706.91
2024-02-29T02:38:11.918Z,100714.16
2024-02-29T02:43:15.096Z,100715.37
2024-02-29T02:48:17.998Z,100710.87
2024-02-29T02:53:21.085Z,100712.59
2024-02-29T02:58:24.441Z,100712.77
2024-02-29T03:03:27.306Z,100708.12
2024-02-29T03:08:30.390Z,100709.16
2024-02-29T03:13:33.285Z,100707.96
2024-02-29T03:18:36.602Z,100703.82
2024-02-29T03:23:39.512Z,100702.60
2024-02-29T03:28:43.183Z,100701.06
2024-02-29T03:33:46.106Z,100698.64
2024-02-29T03:38:51.549Z,100697.77
2024-02-29T03:43:54.408Z,100704.67
2024-02-29T03:48:57.530Z,100699.14
2024-02-29T03:54:00.619Z,100699.32
2024-02-29T03:59:03.644Z,100695.17
2024-02-29T04:04:07.050Z,100696.38
2024-02-29T04:09:10.762Z,100698.97
2024-02-29T04:14:13.751Z,100693.45
2024-02-29T04:19:17.976Z,100692.24
2024-02-29T04:24:21.765Z,100694.84
2024-02-29T04:29:24.653Z,100702.06
2024-02-29T04:34:28.849Z,100704.48
2024-02-29T04:39:31.857Z,100699.98
2024-02-29T04:44:34.691Z,100702.23
2024-02-29T04:49:37.585Z,100697.21
2024-02-29T04:54:40.469Z,100693.58
2024-02-29T04:59:43.639Z,100695.15
2024-02-29T05:04:49.374Z,100694.11
2024-02-29T05:09:52.390Z,100688.59
2024-02-29T05:14:55.482Z,100688.05
2024-02-29T05:19:59.916Z,100697.02
2024-02-29T05:25:03.234Z,100700.13
2024-02-29T05:30:06.869Z,100703.06
2024-02-29T05:35:09.860Z,100709.95
2024-02-29T05:40:14.452Z,100713.58
2024-02-29T05:45:17.606Z,100720.85
2024-02-29T05:50:20.543Z,100722.91
2024-02-29T05:55:23.497Z,100717.71
2024-02-29T06:00:26.518Z,100724.40
2024-02-29T06:05:31.140Z,100721.27
2024-02-29T06:10:34.395Z,100722.13
2024-02-29T06:15:37.749Z,100720.73
2024-02-29T06:20:41.251Z,100721.05
2024-02-29T06:25:44.533Z,100718.95
2024-02-29T06:30:48.952Z,100718.58
2024-02-29T06:35:52.532Z,100721.16
2024-02-29T06:40:56.193Z,100721.47
2024-02-29T06:46:04.908Z,100717.10
2024-02-29T06:51:07.923Z,100723.05
2024-02-29T06:56:12.196Z,100729.71
2024-02-29T07:01:15.459Z,100730.45
2024-02-29T07:06:18.400Z,100728.65
2024-02-29T07:11:22.015Z,100720.92
2024-02-29T07:16:25.799Z,100716.46
2024-02-29T07:21:28.926Z,100719.61
2024-02-29T07:26:32.105Z,100714.75
2024-02-29T07:31:35.562Z,100723.19
2024-02-29T07:36:38.790Z,100719.16
2024-02-29T07:41:42.197Z,100714.90
2024-02-29T07:46:45.140Z,100709.64
2024-02-29T07:51:48.070Z,100711.04
2024-02-29T07:56:51.085Z,100704.96
2024-02-29T08:01:56.812Z,100706.06
2024-02-29T08:06:59.875Z,100709.50
2024-02-29T08:12:04.317Z,100708.00
2024-02-29T08:17:07.189Z,100705.27
2024-02-29T08:22:10.269Z,100700.74
2024-02-29T08:27:14.207Z,100700.52
2024-02-29T08:32:17.198Z,100706.63
2024-02-29T08:37:20.187Z,100701.42
2024-02-29T08:42:23.049Z,100697.52
2024-02-29T08:47:27.932Z,100689.06
2024-02-29T08:52:33.101Z,100680.54
2024-02-29T08:57:36.965Z,100667.80
2024-02-29T09:02:40.060Z,100668.20
2024-02-29T09:07:43.063Z,100671.35
2024-02-29T09:12:46.065Z,100663.23
2024-02-29T09:17:49.093Z,100674.11
2024-02-29T09:22:52.382Z,100673.91
2024-02-29T09:27:55.422Z,100672.21
2024-02-29T09:32:58.367Z,100673.27
2024-02-29T09:38:01.308Z,100676.13
2024-02-29T09:43:06.302Z,100675.69
2024-02-29T09:48:12.334Z,100684.77
2024-02-29T09:53:16.781Z,100690.52
2024-02-29T09:58:22.046Z,100694.09
2024-02-29T10:03:26.129Z,100692.67
2024-02-29T10:08:29.412Z,100692.68
2024-02-29T10:13:47.880Z,100688.31
2024-02-29T10:18:51.144Z,100683.95
2024-02-29T10:23:57.634Z,100675.88
2024-02-29T10:29:10.382Z,100669.55
2024-02-29T10:34:14.136Z,100661.90
2024-02-29T10:39:17.033Z,100654.02
2024-02-29T10:44:23.276Z,100648.48
2024-02-29T10:49:34.739Z,100644.55
2024-02-29T10:54:51.413Z,100645.02
2024-02-29T11:00:02.499Z,100646.77
2024-02-29T11:05:07.550Z,100648.13
2024-02-29T11:10:10.949Z,100646.77
2024-02-29T11:15:14.199Z,100643.46
2024-02-29T11:20:21.764Z,100637.81
2024-02-29T11:25:25.197Z,100631.24
2024-02-29T11:30:31.991Z,100623.48
2024-02-29T11:35:35.107Z,100613.83
2024-02-29T11:40:40.897Z,100622.58
2024-02-29T11:45:43.873Z,100617.69
2024-02-29T11:50:47.176Z,100616.21
2024-02-29T11:55:59.063Z,100604.06
2024-02-29T12:01:07.109Z,100592.99
2024-02-29T12:06:09.997Z,100575.71
2024-02-29T12:11:13.770Z,100584.70
2024-02-29T12:16:16.777Z,100586.56
2024-02-29T12:21:20.093Z,100579.87
2024-02-29T12:26:23.588Z,100578.48
2024-02-29T12:31:26.742Z,100569.98
2024-02-29T12:36:30.016Z,100562.45
2024-02-29T12:41:33.356Z,100564.49
2024-02-29T12:46:36.282Z,100554.55
2024-02-29T12:51:39.262Z,100548.20
2024-02-29T12:56:42.333Z,100537.76
2024-02-29T13:01:45.451Z,100526.35
2024-02-29T13:06:48.473Z,100524.95
2024-02-29T13:11:51.396Z,100524.23
2024-02-29T13:16:55.455Z,100520.77
2024-02-29T13:21:59.837Z,100517.30
2024-02-29T13:27:02.934Z,100509.86
2024-02-29T13:32:06.004Z,100510.02
2024-02-29T13:37:08.986Z,100505.42
2024-02-29T13:42:12.622Z,100502.48
2024-02-29T13:47:15.570Z,100500.73
2024-02-29T13:52:19.233Z,100495.77
2024-02-29T13:57:22.344Z,100498.79
2024-02-29T14:02:26.072Z,100491.25
2024-02-29T14:07:29.333Z,100483.39
2024-02-29T14:12:34.756Z,100475.20
2024-02-29T14:17:39.872Z,100478.01
2024-02-29T14:22:43.001Z,100477.21
2024-02-29T14:27:46.443Z,100475.20
2024-02-29T14:32:49.793Z,100470.48
2024-02-29T14:37:53.044Z,100466.08
2024-02-29T14:42:56.797Z,100455.95
2024-02-29T14:47:59.973Z,100449.40
2024-02-29T14:53:02.905Z,100442.48
2024-02-29T14:58:06.396Z,100435.85
2024-02-29T15:03:10.481Z,100434.41
2024-02-29T15:08:13.468Z,100423.77
2024-02-29T15:13:16.539Z,100418.52
2024-02-29T15:18:19.991Z,100408.03
2024-02-29T15:23:25.176Z,100406.75
2024-02-29T15:28:33.284Z,100406.80
2024-02-29T15:33:36.393Z,100400.09
2024-02-29T15:38:39.832Z,100395.52
2024-02-29T15:43:42.980Z,100399.69
2024-02-29T15:48:46.031Z,100396.15
2024-02-29T15:53:48.965Z,100392.55
2024-02-29T15:58:53.009Z,100397.27
2024-02-29T16:03:56.167Z,100394.59
2024-02-29T16:09:00.668Z,100394.67
2024-02-29T16:14:03.707Z,100383.18
2024-02-29T16:19:06.606Z,100378.25
2024-02-29T16:24:09.623Z,100374.73
2024-02-29T16:29:13.724Z,100373.58
2024-02-29T16:34:16.841Z,100371.19
2024-02-29T16:39:19.912Z,100367.55
2024-02-29T16:44:25.117Z,100366.98
2024-02-29T16:49:28.106Z,100373.90
2024-02-29T16:54:31.550Z,100364.61
2024-02-29T16:59:35.660Z,100368.48
2024-02-29T17:04:38.609Z,100366.17
2024-02-29T17:09:41.538Z,100362.55
2024-02-29T17:14:44.492Z,100362.95
2024-02-29T17:19:47.989Z,100358.77
2024-02-29T17:24:50.954Z,100358.23
2024-02-29T17:29:54.119Z,100354.80
2024-02-29T17:34:57.233Z,100351.89
2024-02-29T17:40:00.573Z,100350.56
2024-02-29T17:45:04.458Z,100352.13
2024-02-29T17:50:18.576Z,100354.02
2024-02-29T17:55:21.643Z,100349.95
2024-02-29T18:00:24.620Z,100350.35
2024-02-29T18:05:28.247Z,100342.56
2024-02-29T18:10:31.652Z,100332.34
2024-02-29T18:15:34.653Z,100337.09
2024-02-29T18:20:38.186Z,100333.14
2024-02-29T18:25:43.236Z,100331.80
2024-02-29T18:30:49.337Z,100334.44
2024-02-29T18:35:52.610Z,100333.80
2024-02-29T18:40:55.980Z,100329.23
2024-02-29T18:46:05.515Z,100328.67
2024-02-29T18:51:10.009Z,100328.95
2024-02-29T18:56:12.982Z,100328.33
2024-02-29T19:01:16.105Z,100318.48
2024-02-29T19:06:19.313Z,100317.75
2024-02-29T19:11:22.405Z,100313.42
2024-02-29T19:16:25.442Z,100309.22
2024-02-29T19:21:28.395Z,100305.67
2024-02-29T19:26:31.298Z,100302.39
2024-02-29T19:31:36.384Z,100300.87
2024-02-29T19:36:39.381Z,100294.80
2024-02-29T19:41:46.024Z,100285.80
2024-02-29T19:46:49.323Z,100278.92
2024-02-29T19:51:52.318Z,100275.35
2024-02-29T19:56:55.434Z,100272.23
2024-02-29T20:01:58.316Z,100265.90
2024-02-29T20:07:01.536Z,100258.98
2024-02-29T20:12:05.535Z,100259.73
2024-02-29T20:17:09.022Z,100255.92
2024-02-29T20:22:11.980Z,100250.58
2024-02-29T20:27:15.164Z,100245.77
2024-02-29T20:32:18.696Z,100240.09
2024-02-29T20:37:22.018Z,100237.14
2024-02-29T20:42:25.635Z,100225.85
2024-02-29T20:47:28.680Z,100224.56
2024-02-29T20:52:32.728Z,100226.73
2024-02-29T20:57:37.070Z,100224.77
2024-02-29T21:02:40.075Z,100222.17
2024-02-29T21:07:44.846Z,100222.99
2024-02-29T21:12:47.896Z,100221.92
2024-02-29T21:17:52.147Z,100218.86
2024-02-29T21:22:55.046Z,100220.28
2024-02-29T21:27:57.977Z,100218.60
2024-02-29T21:33:01.129Z,100216.81
2024-02-29T21:38:04.560Z,100213.02
2024-02-29T21:43:07.465Z,100212.48
2024-02-29T21:48:10.513Z,100204.62
2024-02-29T21:53:13.462Z,100196.89
2024-02-29T21:58:16.799Z,100190.73
2024-02-29T22:03:21.016Z,100188.05
2024-02-29T22:08:25.246Z,100183.00
2024-02-29T22:13:28.353Z,100175.71
2024-02-29T22:18:31.402Z,100171.34
2024-02-29T22:23:34.548Z,100162.54
2024-02-29T22:28:37.699Z,100163.48
2024-02-29T22:33:40.818Z,100163.77
2024-02-29T22:38:43.652Z,100166.70
2024-02-29T22:43:46.665Z,100163.52
2024-02-29T22:48:49.549Z,100159.83
2024-02-29T22:53:52.504Z,100156.50
2024-02-29T22:58:55.401Z,100151.94
2024-02-29T23:03:58.294Z,100145.70
2024-02-29T23:09:01.218Z,100144.03
2024-02-29T23:14:04.634Z,100148.55
2024-02-29T23:19:07.569Z,100147.13
2024-02-29T23:24:11.010Z,100142.34
2024-02-29T23:29:14.402Z,100140.98
2024-02-29T23:34:17.320Z,100137.20
2024-02-29T23:39:20.274Z,100131.73
2024-02-29T23:44:23.167Z,100126.53
2024-02-29T23:49:26.153Z,100120.80
2024-02-29T23:54:29.842Z,100114.84
2024-02-29T23:59:32.719Z,100115.81
